Terminal Aerodrome Forecast
Issued by NWS Wakefield, VA

Home | Current Version | Previous Version | Text Only | Print | Product List | Glossary On
Versions: 1 2 3 4 5 6 7 8 9 10 11 12
000
FTUS41 KAKQ 311136
TAFRIC
TAF
KRIC 311136Z 3112/0112 21004KT P6SM BKN080 OVC100
     FM311400 20009KT P6SM SCT080 OVC100
     FM312300 18005KT P6SM SCT100=

USA.gov is the U.S. government's official web portal to all federal, state and local government web resources and services.